EGAC/BHD METAR and TAF weather

Enter ICAO airport designator
Station Type Date Time Source
EGAC METAR 2018/04/19 13:20 UTC NOAA

EGAC 191320Z AUTO 17012KT 130V200 9999 FEW034/// 18/11 Q1021


Station Type Date Time Source
EGAC Decoded METAR 2018/04/19 13:20 UTC NOAA

Belfast / Harbour, United Kingdom (EGAC) 54-36N 005-53W 0M
Apr 19, 2018 - 09:20 AM EDT / 2018.04.19 1320 UTC
Wind: from the S (170 degrees) at 14 MPH (12 KT) (direction variable):0
Visibility: greater than 7 mile(s):0
Sky conditions: mostly clear
Temperature: 64 F (18 C)
Dew Point: 51 F (11 C)
Relative Humidity: 63%
Pressure (altimeter): 30.15 in. Hg (1021 hPa)
ob: EGAC 191320Z AUTO 17012KT 130V200 9999 FEW034/// 18/11 Q1021
cycle: 13

Station Type Date Time Source
EGAC TAF UTC NOAA

Error!


Example: see airport list